Flight Track Log - Related Links

Times and Time Zones

All times are in EST time to prevent confusion due to time zone crossing. See the N589H flight status page for this flight to view local times or setup timezone preferences in your user account.

Time Position Orientation Groundspeed Altitude Reporting Facility
EST Latitude Longitude Course Direction KTS MPH feet Rate Location/Type
09:53AM 28.1000 -80.6667 270° West 159 183 800  Level Orlando TRACON
09:54AM 28.1000 -80.7333 270° West 193 222 2,800 1,843 Climbing Orlando TRACON
09:55AM 28.1167 -80.7833 291° West 181 208 4,700 1,748 Climbing Orlando TRACON
09:56AM 28.1500 -80.8667 294° West 228 262 6,500 1,500 Climbing Orlando TRACON
09:57AM 28.1833 -80.9167 307° West 247 284 8,000 1,700 Climbing Orlando TRACON
09:58AM 28.2333 -80.9667 319° Northwest 241 277 9,900 1,850 Climbing Orlando TRACON
09:59AM 28.2833 -81.0333 310° West 243 280 11,700 1,096 Climbing Orlando TRACON
10:00AM 28.3333 -81.0833 319° Northwest 276 318 12,000 157 Climbing Orlando TRACON
10:01AM 28.3833 -81.1500 310° West 298 343 12,000  Level Orlando TRACON
10:02AM 28.4500 -81.2167 319° Northwest 299 344 12,000 400 Level Orlando TRACON
10:03AM 28.4500 -81.3000 270° West 264 304 12,800 1,422 Climbing Orlando TRACON
10:05AM 28.4442 -81.4264 267° West 205 236 16,100 1,734 Climbing Jacksonville Center
10:06AM 28.4367 -81.4950 263° West 219 252 17,800 1,686 Climbing Jacksonville Center
10:07AM 28.4331 -81.5517 266° West 208 239 19,500 1,210 Climbing Jacksonville Center
10:08AM 28.4253 -81.6108 262° West 200 230 20,200 504 Climbing Jacksonville Center
10:09AM 28.4508 -81.6719 295° West 206 237 20,500 689 Climbing Jacksonville Center
10:10AM 28.4808 -81.7400 297° West 219 252 21,600 1,240 Climbing Jacksonville Center
10:11AM 28.5064 -81.8131 292° West 239 275 23,000 1,179 Climbing Jacksonville Center
10:12AM 28.5361 -81.8811 296° West 239 275 23,900 857 Climbing Jacksonville Center
10:13AM 28.5617 -81.9542 292° West 244 281 24,700 787 Climbing Jacksonville Center
10:14AM 28.5917 -82.0297 294° West 249 287 25,500 843 Climbing Jacksonville Center
10:15AM 28.6192 -82.1003 294° West 249 287 26,400 864 Climbing Jacksonville Center
10:16AM 28.6467 -82.1733 293° West 254 292 27,200 915 Climbing Jacksonville Center
10:17AM 28.6742 -82.2467 293° West 254 292 28,200 793 Climbing Jacksonville Center
10:18AM 28.7017 -82.3175 294° West 254 292 28,800 595 Climbing Jacksonville Center
10:19AM 28.7292 -82.3836 295° West 249 287 29,400 545 Climbing Jacksonville Center
10:20AM 28.7544 -82.4569 291° West 249 287 29,900 545 Climbing Jacksonville Center
10:21AM 28.7839 -82.5300 295° West 249 287 30,500 555 Climbing Jacksonville Center
10:22AM 28.8111 -82.6011 294° West 254 292 31,000 555 Climbing Jacksonville Center
10:23AM 28.8383 -82.6722 294° West 254 292 31,600 492 Climbing Jacksonville Center
10:24AM 28.8636 -82.7433 292° West 254 292 32,000 198 Climbing Jacksonville Center
10:25AM 28.8908 -82.8142 294° West 254 292 32,000  Level Jacksonville Center
10:26AM 28.9200 -82.8903 294° West 254 292 32,000  Level Jacksonville Center
10:27AM 28.9492 -82.9661 294° West 254 292 32,000  Level Jacksonville Center
10:28AM 28.9783 -83.0444 293° West 254 292 32,000  Level Jacksonville Center
10:29AM 29.0053 -83.1206 292° West 254 292 32,000  Level Jacksonville Center
10:30AM 29.0239 -83.2036 284° West 254 292 32,000 -397 Level Jacksonville Center
10:31AM 29.0050 -83.2986 257° West 260 299 31,200 -694 Descending Jacksonville Center
10:32AM 28.9900 -83.3886 259° West 278 320 30,600 -541 Descending Jacksonville Center
10:33AM 28.9792 -83.4836 263° West 295 339 30,100 -508 Descending Jacksonville Center
10:34AM 28.9683 -83.5783 263° West 300 345 29,600 -458 Descending Jacksonville Center
10:35AM 28.9614 -83.6733 265° West 300 345 29,200 -446 Descending Jacksonville Center
10:36AM 28.9714 -83.7683 277° West 300 345 28,700 -496 Descending Jacksonville Center
10:37AM 28.9789 -83.8658 275° West 300 345 28,200 -344 Descending Jacksonville Center
10:38AM 28.9864 -83.9631 275° West 311 358 28,000 -101 Descending Jacksonville Center
10:39AM 29.0211 -84.0514 294° West 311 358 28,000  Level Jacksonville Center
10:40AM 29.0581 -84.1419 295° West 311 358 28,000  Level Jacksonville Center
10:41AM 29.0925 -84.2281 295° West 305 351 28,000  Level Jacksonville Center
10:42AM 29.1292 -84.3164 295° West 305 351 28,000  Level Jacksonville Center
10:43AM 29.1617 -84.4050 293° West 305 351 28,000  Level Jacksonville Center
10:44AM 29.1961 -84.4911 295° West 300 345 28,000  Level Jacksonville Center
10:45AM 29.2325 -84.5772 296° West 300 345 28,000  Level Jacksonville Center
10:46AM 29.2667 -84.6636 294° West 300 345 28,000  Level Jacksonville Center
10:47AM 29.3011 -84.7500 295° West 300 345 28,000  Level Jacksonville Center
10:48AM 29.3353 -84.8364 294° West 295 339 28,000  Level Jacksonville Center
10:49AM 29.3672 -84.9203 294° West 295 339 28,000  Level Jacksonville Center
10:50AM 29.3994 -85.0044 294° West 295 339 28,000  Level Jacksonville Center
10:51AM 29.4333 -85.0911 294° West 295 339 28,000  Level Jacksonville Center
10:52AM 29.4675 -85.1753 295° West 295 339 28,000  Level Jacksonville Center
10:53AM 29.5014 -85.2619 294° West 295 339 28,000  Level Jacksonville Center
10:54AM 29.5353 -85.3486 294° West 295 339 28,000  Level Jacksonville Center
10:55AM 29.5669 -85.4356 293° West 295 339 28,000  Level Jacksonville Center
10:56AM 29.6006 -85.5200 295° West 295 339 28,000  Level Jacksonville Center
10:57AM 29.6344 -85.6069 294° West 295 339 28,000  Level Jacksonville Center
10:58AM 29.6681 -85.6914 295° West 295 339 28,000  Level Jacksonville Center
10:59AM 29.6994 -85.7783 293° West 295 339 28,000  Level Jacksonville Center
11:00AM 29.7331 -85.8631 295° West 295 339 28,000  Level Jacksonville Center
11:01AM 29.7664 -85.9478 294° West 295 339 28,000  Level Jacksonville Center
11:02AM 29.7978 -86.0325 293° West 295 339 28,000  Level Jacksonville Center
11:03AM 29.8311 -86.1175 294° West 295 339 28,000  Level Jacksonville Center
11:04AM 29.8644 -86.2047 294° West 295 339 28,000  Level Jacksonville Center
11:05AM 29.8956 -86.2897 293° West 295 339 28,000  Level Jacksonville Center
11:06AM 29.9267 -86.3722 294° West 295 339 28,000  Level Jacksonville Center
11:07AM 29.9597 -86.4622 293° West 295 339 28,000  Level Jacksonville Center
11:08AM 29.9908 -86.5472 293° West 295 339 28,000  Level Jacksonville Center
11:09AM 30.0236 -86.6347 293° West 295 339 28,000  Level Jacksonville Center
11:10AM 30.0589 -86.7200 296° West 295 339 28,000  Level Jacksonville Center
11:12AM 30.1369 -86.9331 293° West 298 343 28,000  Level Houston Center
11:13AM 30.1706 -87.0214 294° West 301 346 28,000  Level Houston Center
11:14AM 30.2008 -87.1103 292° West 300 345 28,000  Level Houston Center
11:16AM 30.2386 -87.2153 293° West 297 342 28,000  Level Houston Center
11:17AM 30.2728 -87.3019 295° West 297 342 28,000  Level Houston Center
11:18AM 30.3028 -87.3897 292° West 295 339 28,000  Level Houston Center
11:19AM 30.3344 -87.4772 293° West 296 341 28,000  Level Houston Center
11:20AM 30.3647 -87.5644 292° West 295 339 28,000  Level Houston Center
11:21AM 30.3961 -87.6522 293° West 295 339 28,000  Level Houston Center
11:22AM 30.4311 -87.7533 292° West 296 341 28,000  Level Houston Center
11:23AM 30.4650 -87.8400 294° West 296 341 28,000  Level Houston Center
11:24AM 30.4967 -87.9272 293° West 296 341 28,000  Level Houston Center
11:25AM 30.5272 -88.0150 292° West 296 341 28,000  Level Houston Center
11:26AM 30.5597 -88.1014 294° West 294 338 28,000  Level Houston Center
11:27AM 30.5972 -88.2056 293° West 294 338 28,000  Level Houston Center
11:28AM 30.6283 -88.2928 293° West 294 338 28,000  Level Houston Center
11:29AM 30.6583 -88.3800 292° West 294 338 28,000  Level Houston Center
11:30AM 30.6900 -88.4683 293° West 297 342 28,000  Level Houston Center
11:31AM 30.7203 -88.5556 292° West 295 339 28,000  Level Houston Center
11:32AM 30.7586 -88.6614 293° West 297 342 28,000  Level Houston Center
11:33AM 30.7908 -88.7503 293° West 299 344 28,000  Level Houston Center
11:34AM 30.8206 -88.8392 291° West 298 343 28,000  Level Houston Center
11:35AM 30.8533 -88.9292 293° West 301 346 28,000  Level Houston Center
11:36AM 30.8847 -89.0197 292° West 303 349 28,000  Level Houston Center
11:37AM 30.9222 -89.1281 292° West 303 349 28,000  Level Houston Center
11:38AM 30.9539 -89.2169 293° West 301 346 28,000  Level Houston Center
11:39AM 30.9878 -89.3100 293° West 312 359 28,000  Level Houston Center
11:40AM 31.0178 -89.4000 291° West 309 356 28,000  Level Houston Center
11:41AM 31.0478 -89.4883 292° West 301 346 28,000  Level Houston Center
11:42AM 31.0792 -89.5772 292° West 298 343 28,000  Level Houston Center
11:43AM 31.1144 -89.6847 291° West 298 343 28,000  Level Houston Center
11:44AM 31.1456 -89.7728 292° West 295 339 28,000  Level Houston Center
11:46AM 31.1747 -89.8603 291° West 293 337 28,000  Level Houston Center
11:47AM 31.2047 -89.9475 292° West 291 335 28,000  Level Houston Center
11:48AM 31.2342 -90.0353 291° West 292 336 28,000  Level Houston Center
11:49AM 31.2683 -90.1397 291° West 288 331 28,000  Level Houston Center
11:50AM 31.2986 -90.2275 292° West 292 336 28,000  Level Houston Center
11:51AM 31.3275 -90.3147 291° West 290 334 28,000  Level Houston Center
11:52AM 31.3569 -90.4019 292° West 289 333 28,000  Level Houston Center
11:53AM 31.3869 -90.4900 292° West 291 335 28,000  Level Houston Center
11:54AM 31.4214 -90.5961 291° West 293 337 28,000  Level Houston Center
11:55AM 31.4522 -90.6842 292° West 293 337 28,000  Level Houston Center
11:56AM 31.4808 -90.7736 291° West 294 338 28,000  Level Houston Center
11:57AM 31.5103 -90.8628 291° West 295 339 28,000  Level Houston Center
11:58AM 31.5400 -90.9531 291° West 297 342 28,000  Level Houston Center
11:59AM 31.5697 -91.0425 291° West 297 342 28,000  Level Houston Center
12:00PM 31.6008 -91.1381 291° West 294 338 28,000  Level Houston Center
12:01PM 31.6292 -91.2269 291° West 293 337 28,000  Level Houston Center
12:02PM 31.6647 -91.3342 291° West 295 339 28,000  Level Houston Center
12:03PM 31.6936 -91.4219 291° West 291 335 28,000  Level Houston Center
12:04PM 31.7217 -91.5103 290° West 290 334 28,000  Level Houston Center
12:05PM 31.7497 -91.5975 291° West 287 330 28,000  Level Houston Center
12:06PM 31.7781 -91.6850 291° West 287 330 28,000 -384 Level Houston Center
12:07PM 31.8122 -91.7914 291° West 290 334 27,200 -816 Descending Houston Center
12:08PM 31.8425 -91.8856 291° West 305 351 26,300 -919 Descending Houston Center
12:09PM 31.8731 -91.9786 291° West 306 352 25,300 -968 Descending Houston Center
12:10PM 31.9058 -92.0836 290° West 306 352 24,300 -823 Descending Houston Center
12:11PM 31.9342 -92.1731 290° West 298 343 23,600 -677 Descending Houston Center
12:12PM 31.9650 -92.2678 291° West 291 335 22,900 -726 Descending Houston Center
12:13PM 31.9931 -92.3558 291° West 289 333 22,100 -816 Descending Houston Center
12:15PM 32.0206 -92.4458 290° West 292 336 21,200 -816 Descending Houston Center
12:16PM 32.0478 -92.5333 290° West 288 331 20,400 -823 Descending Houston Center
12:17PM 32.0758 -92.6214 291° West 288 331 19,500 -968 Descending Houston Center
12:18PM 32.1081 -92.7275 290° West 288 331 18,400 -919 Descending Houston Center
12:19PM 32.1350 -92.8122 291° West 280 322 17,600 -1,038 Descending Houston Center
12:19PM 32.1547 -92.8753 290° West 280 322 16,600 -1,500 Descending Fort Worth Center
12:20PM 32.1822 -92.9681 289° West 280 322 15,000 -1,584 Descending Fort Worth Center
12:21PM 32.2081 -93.0483 291° West 264 304 13,300 -1,636 Descending Fort Worth Center
12:21PM 32.2100 -93.0536 294° West 265 305 13,200 -1,452 Descending Fort Worth Center
12:22PM 32.2328 -93.1281 290° West 262 302 11,800 -1,475 Descending Fort Worth Center
12:23PM 32.2361 -93.1325 312° West 254 292 11,700 -1,548 Descending Fort Worth Center
12:24PM 32.2578 -93.2086 289° West 246 283 10,200 -1,475 Descending Fort Worth Center
12:24PM 32.2575 -93.2069 101° East 244 281 10,200 -1,475 Level Fort Worth Center
12:25PM 32.2811 -93.2814 291° West 240 276 8,700 -1,475 Descending Fort Worth Center
12:25PM 32.2808 -93.2836 262° West 242 278 8,700 -1,524 Level Fort Worth Center
12:26PM 32.3058 -93.3628 291° West 242 278 7,100 -1,388 Descending Fort Worth Center
12:27PM 32.3261 -93.4328 289° West 247 284 5,900 -1,258 Descending Fort Worth Center
12:27PM 32.3294 -93.4394 301° West 246 283 5,800 -1,375 Descending Fort Worth Center
12:27PM 32.3492 -93.5022 290° West 263 303 4,800 -1,258 Descending Fort Worth Center
12:28PM 32.3569 -93.5278 290° West 263 303 4,500 -1,180 Descending Fort Worth Center
12:28PM 32.3725 -93.5792 290° West 250 288 3,600 -1,258 Descending Fort Worth Center
12:29PM 32.3803 -93.6019 292° West 245 282 3,200 -492 Descending Fort Worth Center
12:29PM 32.3933 -93.6492 288° West 219 252 3,100 -194 Descending Fort Worth Center
12:30PM 32.4011 -93.6697 294° West 221 254 3,000 -900 Descending Fort Worth Center
12:30PM 32.4078 -93.7144 280° West 195 224 2,200 -1,429 Descending Fort Worth Center
12:31PM 32.4086 -93.7378 272° West 195 224 1,500 -1,309 Descending Fort Worth Center
12:31PM 32.4069 -93.7714 267° West 186 214 1,000 -484 Descending Fort Worth Center
12:32PM 32.4125 -93.7944 286° West 174 200 1,000 -492 Level Fort Worth Center
12:32PM 32.4258 -93.8092 317° Northwest 128 147 500 -581 Descending Fort Worth Center
12:33PM 32.4403 -93.8208 326° Northwest 139 160 400 -200 Descending Fort Worth Center

Login

Don't have an account? Register now (free) for customized features, flight alerts, and more!